OCN564 EDDF-LBWN
Flight info
| Callsign | OCN564 |
|---|---|
| Flight time | N/A |
| Altitude | 31000 |
| Route | CINDY8S/18 CINDY Z74 HAREM DCT ASLEP DCT TAKUT L603 BESNI/N0431F370 L605 MIQ DCT ALUTU DCT BIBAG L605 ESEGA DCT VELOM DCT BAGSI DCT DIVAL DCT STEIN DCT SIRDU DCT RASUB DCT BULEN L744 EXIGA |
| Aircraft | A320/M-SDE2E3FGIJ1LORWXYZ/HB1 |
Departure
| Time | 2026-04-16 12:16 |
|---|---|
| Airport | Frankfurt Main Airport (EDDF) |
Arrival
| Time | N/A |
|---|---|
| Airport | Varna Airport (LBWN) |
| Time | Latitude | Longitude | Altitude | Speed | Heading |
|---|---|---|---|---|---|
| 2026-04-16 11:56 | 50.04453 | 8.56431 | 356 ft | 0 kts | 154° |
| 2026-04-16 12:06 | 50.04475 | 8.56414 | 360 ft | 4 kts | 155° |
| 2026-04-16 12:06 | 50.04500 | 8.56399 | 362 ft | 4 kts | 171° |
| 2026-04-16 12:06 | 50.04520 | 8.56401 | 356 ft | 3 kts | 243° |
| 2026-04-16 12:07 | 50.04520 | 8.56400 | 356 ft | 3 kts | 250° |
| 2026-04-16 12:07 | 50.04514 | 8.56374 | 358 ft | 0 kts | 250° |
| 2026-04-16 12:10 | 50.04510 | 8.56356 | 362 ft | 5 kts | 250° |
| 2026-04-16 12:10 | 50.04491 | 8.56272 | 358 ft | 12 kts | 250° |
| 2026-04-16 12:10 | 50.04456 | 8.56128 | 361 ft | 14 kts | 249° |
| 2026-04-16 12:11 | 50.04393 | 8.56026 | 356 ft | 14 kts | 180° |
| 2026-04-16 12:11 | 50.04291 | 8.56066 | 358 ft | 16 kts | 193° |
| 2026-04-16 12:11 | 50.04233 | 8.55911 | 359 ft | 18 kts | 250° |
| 2026-04-16 12:11 | 50.04189 | 8.55726 | 357 ft | 18 kts | 250° |
| 2026-04-16 12:12 | 50.04142 | 8.55532 | 353 ft | 20 kts | 249° |
| 2026-04-16 12:12 | 50.04093 | 8.55328 | 360 ft | 20 kts | 250° |
| 2026-04-16 12:12 | 50.04044 | 8.55120 | 356 ft | 21 kts | 250° |
| 2026-04-16 12:12 | 50.03991 | 8.54899 | 356 ft | 23 kts | 249° |
| 2026-04-16 12:13 | 50.03934 | 8.54660 | 355 ft | 25 kts | 249° |
| 2026-04-16 12:13 | 50.03871 | 8.54406 | 350 ft | 24 kts | 243° |
| 2026-04-16 12:13 | 50.03788 | 8.54176 | 351 ft | 25 kts | 249° |
| 2026-04-16 12:13 | 50.03728 | 8.53919 | 346 ft | 26 kts | 250° |
| 2026-04-16 12:14 | 50.03664 | 8.53651 | 348 ft | 27 kts | 249° |
| 2026-04-16 12:14 | 50.03595 | 8.53379 | 337 ft | 27 kts | 251° |
| 2026-04-16 12:14 | 50.03529 | 8.53099 | 334 ft | 28 kts | 249° |
| 2026-04-16 12:14 | 50.03457 | 8.52818 | 332 ft | 28 kts | 248° |
| 2026-04-16 12:15 | 50.03382 | 8.52611 | 333 ft | 17 kts | 205° |
| 2026-04-16 12:15 | 50.03258 | 8.52595 | 332 ft | 20 kts | 180° |
| 2026-04-16 12:15 | 50.02954 | 8.52598 | 335 ft | 85 kts | 179° |
| 2026-04-16 12:15 | 50.02091 | 8.52607 | 335 ft | 159 kts | 179° |
| 2026-04-16 12:16 | 50.00838 | 8.52631 | 672 ft | 192 kts | 181° |
| 2026-04-16 12:16 | 49.99470 | 8.52632 | 1405 ft | 199 kts | 181° |
| 2026-04-16 12:16 | 49.98081 | 8.52746 | 2292 ft | 201 kts | 175° |
| 2026-04-16 12:16 | 49.96704 | 8.53402 | 2875 ft | 218 kts | 146° |
| 2026-04-16 12:17 | 49.95754 | 8.55281 | 3586 ft | 228 kts | 118° |
| 2026-04-16 12:17 | 49.95016 | 8.57565 | 4107 ft | 248 kts | 120° |
| 2026-04-16 12:17 | 49.94134 | 8.59998 | 4650 ft | 266 kts | 121° |
| 2026-04-16 12:17 | 49.93185 | 8.62545 | 4941 ft | 275 kts | 121° |
| 2026-04-16 12:18 | 49.92228 | 8.65118 | 5009 ft | 275 kts | 121° |
| 2026-04-16 12:18 | 49.91277 | 8.67695 | 5034 ft | 276 kts | 120° |
| 2026-04-16 12:18 | 49.90327 | 8.70285 | 5027 ft | 276 kts | 121° |
| 2026-04-16 12:18 | 49.89385 | 8.72866 | 5034 ft | 275 kts | 120° |
| 2026-04-16 12:19 | 49.88448 | 8.75453 | 5216 ft | 278 kts | 120° |
| 2026-04-16 12:19 | 49.87503 | 8.78071 | 6177 ft | 279 kts | 120° |
| 2026-04-16 12:19 | 49.86550 | 8.80710 | 7086 ft | 283 kts | 120° |
| 2026-04-16 12:19 | 49.85581 | 8.83389 | 7954 ft | 287 kts | 120° |
| 2026-04-16 12:20 | 49.84599 | 8.86100 | 8817 ft | 291 kts | 120° |
| 2026-04-16 12:20 | 49.83604 | 8.88850 | 9681 ft | 295 kts | 120° |
| 2026-04-16 12:20 | 49.82590 | 8.91640 | 10430 ft | 303 kts | 120° |
| 2026-04-16 12:20 | 49.81514 | 8.94593 | 10701 ft | 327 kts | 120° |
| 2026-04-16 12:21 | 49.80388 | 8.97682 | 11186 ft | 340 kts | 120° |
| 2026-04-16 12:21 | 49.79216 | 9.00896 | 11875 ft | 346 kts | 120° |
| 2026-04-16 12:21 | 49.78007 | 9.04210 | 12617 ft | 352 kts | 120° |
| 2026-04-16 12:21 | 49.76805 | 9.07536 | 13345 ft | 357 kts | 117° |
| 2026-04-16 12:22 | 49.75894 | 9.11073 | 14049 ft | 362 kts | 106° |
| 2026-04-16 12:22 | 49.75273 | 9.14869 | 14666 ft | 366 kts | 107° |
| 2026-04-16 12:22 | 49.74332 | 9.18547 | 15273 ft | 370 kts | 118° |
| 2026-04-16 12:22 | 49.72928 | 9.21892 | 15883 ft | 373 kts | 131° |
| 2026-04-16 12:23 | 49.71213 | 9.24924 | 16507 ft | 377 kts | 133° |
| 2026-04-16 12:23 | 49.69469 | 9.27976 | 17135 ft | 381 kts | 133° |
| 2026-04-16 12:23 | 49.67710 | 9.31067 | 17770 ft | 385 kts | 133° |
| 2026-04-16 12:23 | 49.65937 | 9.34196 | 18384 ft | 389 kts | 133° |
| 2026-04-16 12:24 | 49.64146 | 9.37358 | 18926 ft | 393 kts | 133° |
| 2026-04-16 12:24 | 49.62472 | 9.40729 | 19445 ft | 399 kts | 123° |
| 2026-04-16 12:24 | 49.61560 | 9.43267 | 19791 ft | 403 kts | 116° |
| 2026-04-16 12:24 | 49.60576 | 9.47268 | 20284 ft | 407 kts | 108° |
| 2026-04-16 12:25 | 49.59694 | 9.51436 | 20803 ft | 411 kts | 108° |
| 2026-04-16 12:25 | 49.58785 | 9.55692 | 21316 ft | 414 kts | 108° |
| 2026-04-16 12:25 | 49.57875 | 9.59927 | 21808 ft | 418 kts | 108° |
| 2026-04-16 12:25 | 49.56965 | 9.64141 | 22277 ft | 422 kts | 108° |
| 2026-04-16 12:26 | 49.56034 | 9.68443 | 22754 ft | 425 kts | 108° |
| 2026-04-16 12:26 | 49.55095 | 9.72778 | 23239 ft | 428 kts | 108° |
| 2026-04-16 12:26 | 49.54148 | 9.77146 | 23724 ft | 432 kts | 108° |
| 2026-04-16 12:26 | 49.53077 | 9.81478 | 24113 ft | 435 kts | 116° |
| 2026-04-16 12:27 | 49.51576 | 9.85531 | 24499 ft | 437 kts | 126° |
| 2026-04-16 12:27 | 49.49710 | 9.89227 | 24887 ft | 439 kts | 130° |
| 2026-04-16 12:27 | 49.47776 | 9.92877 | 25286 ft | 441 kts | 130° |
| 2026-04-16 12:27 | 49.45832 | 9.96543 | 25676 ft | 444 kts | 130° |
| 2026-04-16 12:28 | 49.43877 | 10.00235 | 26056 ft | 447 kts | 130° |
| 2026-04-16 12:28 | 49.41909 | 10.03951 | 26427 ft | 450 kts | 130° |
| 2026-04-16 12:28 | 49.39930 | 10.07684 | 26796 ft | 452 kts | 130° |
| 2026-04-16 12:28 | 49.37939 | 10.11437 | 27161 ft | 455 kts | 130° |
| 2026-04-16 12:29 | 49.35937 | 10.15214 | 27523 ft | 458 kts | 130° |
| 2026-04-16 12:29 | 49.33921 | 10.19010 | 27886 ft | 460 kts | 130° |
| 2026-04-16 12:29 | 49.31893 | 10.22819 | 28253 ft | 463 kts | 130° |
| 2026-04-16 12:29 | 49.29850 | 10.26650 | 28617 ft | 466 kts | 131° |
| 2026-04-16 12:30 | 49.27794 | 10.30498 | 28967 ft | 467 kts | 130° |
| 2026-04-16 12:30 | 49.25732 | 10.34358 | 29345 ft | 469 kts | 130° |
| 2026-04-16 12:30 | 49.23638 | 10.38200 | 29680 ft | 471 kts | 134° |
| 2026-04-16 12:30 | 49.21316 | 10.41744 | 30017 ft | 473 kts | 137° |
| 2026-04-16 12:31 | 49.18950 | 10.45250 | 30336 ft | 475 kts | 137° |
| 2026-04-16 12:31 | 49.16571 | 10.48775 | 30623 ft | 477 kts | 137° |
| 2026-04-16 12:31 | 49.14185 | 10.52317 | 30906 ft | 479 kts | 137° |
| 2026-04-16 12:31 | 49.11789 | 10.55871 | 31161 ft | 481 kts | 137° |
| 2026-04-16 12:32 | 49.09391 | 10.59433 | 31272 ft | 478 kts | 137° |
| 2026-04-16 12:32 | 49.07050 | 10.62914 | 31288 ft | 461 kts | 137° |
| 2026-04-16 12:32 | 49.02518 | 10.69608 | 31272 ft | 450 kts | 137° |
| 2026-04-16 12:33 | 48.98023 | 10.76208 | 31285 ft | 448 kts | 137° |
| 2026-04-16 12:33 | 48.93539 | 10.82778 | 31284 ft | 448 kts | 137° |
| 2026-04-16 12:34 | 48.89046 | 10.89341 | 31271 ft | 448 kts | 137° |
| 2026-04-16 12:34 | 48.84590 | 10.95860 | 31254 ft | 448 kts | 137° |
| 2026-04-16 12:35 | 48.80104 | 11.02409 | 31254 ft | 447 kts | 137° |
| 2026-04-16 12:35 | 48.75627 | 11.08928 | 31241 ft | 446 kts | 137° |
| 2026-04-16 12:36 | 48.71145 | 11.15406 | 31247 ft | 445 kts | 137° |
| 2026-04-16 12:36 | 48.66717 | 11.21939 | 31250 ft | 445 kts | 131° |
| 2026-04-16 12:37 | 48.63451 | 11.29838 | 31250 ft | 444 kts | 111° |
| 2026-04-16 12:37 | 48.61514 | 11.38690 | 31254 ft | 444 kts | 107° |
| 2026-04-16 12:38 | 48.59628 | 11.47569 | 31250 ft | 444 kts | 107° |
| 2026-04-16 12:38 | 48.57729 | 11.56443 | 31254 ft | 444 kts | 107° |
| 2026-04-16 12:39 | 48.56184 | 11.65453 | 31244 ft | 443 kts | 101° |
| 2026-04-16 12:39 | 48.54876 | 11.74545 | 31252 ft | 443 kts | 101° |
| 2026-04-16 12:40 | 48.53556 | 11.83632 | 31261 ft | 443 kts | 102° |
| 2026-04-16 12:40 | 48.52221 | 11.92708 | 31260 ft | 443 kts | 102° |
| 2026-04-16 12:41 | 48.50871 | 12.01776 | 31261 ft | 443 kts | 102° |
| 2026-04-16 12:41 | 48.49518 | 12.10834 | 31259 ft | 443 kts | 102° |
| 2026-04-16 12:42 | 48.48167 | 12.19883 | 31261 ft | 443 kts | 103° |
| 2026-04-16 12:42 | 48.46801 | 12.28929 | 31255 ft | 443 kts | 103° |
| 2026-04-16 12:43 | 48.45433 | 12.37901 | 31258 ft | 443 kts | 103° |
| 2026-04-16 12:43 | 48.44045 | 12.46936 | 31252 ft | 443 kts | 103° |
| 2026-04-16 12:44 | 48.42655 | 12.55973 | 31253 ft | 443 kts | 103° |
| 2026-04-16 12:44 | 48.41257 | 12.65000 | 31255 ft | 443 kts | 103° |
| 2026-04-16 12:45 | 48.39850 | 12.74021 | 31261 ft | 442 kts | 105° |
| 2026-04-16 12:45 | 48.37896 | 12.82788 | 31251 ft | 442 kts | 110° |
| 2026-04-16 12:46 | 48.35869 | 12.91514 | 31252 ft | 442 kts | 110° |
| 2026-04-16 12:46 | 48.33845 | 13.00237 | 31243 ft | 442 kts | 110° |
| 2026-04-16 12:47 | 48.31803 | 13.08945 | 31243 ft | 442 kts | 110° |
| 2026-04-16 12:47 | 48.29761 | 13.17638 | 31247 ft | 441 kts | 110° |
| 2026-04-16 12:48 | 48.27713 | 13.26327 | 31253 ft | 441 kts | 110° |
| 2026-04-16 12:48 | 48.25659 | 13.35006 | 31252 ft | 441 kts | 110° |
| 2026-04-16 12:49 | 48.23601 | 13.43680 | 31262 ft | 441 kts | 110° |
| 2026-04-16 12:49 | 48.21551 | 13.52350 | 31261 ft | 441 kts | 109° |
| 2026-04-16 12:50 | 48.19726 | 13.61126 | 31258 ft | 441 kts | 107° |
| 2026-04-16 12:50 | 48.18011 | 13.69953 | 31253 ft | 441 kts | 107° |
| 2026-04-16 12:51 | 48.16259 | 13.78755 | 31252 ft | 441 kts | 108° |
| 2026-04-16 12:51 | 48.14453 | 13.87525 | 31254 ft | 441 kts | 108° |
| 2026-04-16 12:52 | 48.12622 | 13.96275 | 31256 ft | 440 kts | 108° |
| 2026-04-16 12:52 | 48.10805 | 14.04954 | 31256 ft | 440 kts | 108° |
| 2026-04-16 12:53 | 48.08988 | 14.13694 | 31258 ft | 440 kts | 108° |
| 2026-04-16 12:53 | 48.07149 | 14.22480 | 31261 ft | 440 kts | 108° |
| 2026-04-16 12:54 | 48.05278 | 14.31177 | 31258 ft | 439 kts | 110° |
| 2026-04-16 12:54 | 48.03102 | 14.39699 | 31252 ft | 438 kts | 113° |
| 2026-04-16 12:55 | 48.00775 | 14.48116 | 31245 ft | 438 kts | 114° |
| 2026-04-16 12:55 | 47.98494 | 14.56494 | 31244 ft | 439 kts | 113° |
| 2026-04-16 12:56 | 47.96240 | 14.64948 | 31243 ft | 438 kts | 112° |
| 2026-04-16 12:56 | 47.93989 | 14.73402 | 31246 ft | 438 kts | 112° |
| 2026-04-16 12:57 | 47.91732 | 14.81844 | 31239 ft | 438 kts | 113° |
| 2026-04-16 12:57 | 47.89458 | 14.90267 | 31237 ft | 438 kts | 113° |
| 2026-04-16 12:58 | 47.87183 | 14.98686 | 31234 ft | 438 kts | 113° |
| 2026-04-16 12:58 | 47.84907 | 15.07087 | 31236 ft | 437 kts | 113° |
| 2026-04-16 12:59 | 47.82626 | 15.15478 | 31235 ft | 437 kts | 113° |
| 2026-04-16 13:00 | 47.79196 | 15.28035 | 31233 ft | 437 kts | 113° |
| 2026-04-16 13:00 | 47.76903 | 15.36398 | 31227 ft | 437 kts | 114° |
| 2026-04-16 13:01 | 47.74596 | 15.44747 | 31227 ft | 437 kts | 114° |
| 2026-04-16 13:01 | 47.72285 | 15.53087 | 31223 ft | 436 kts | 114° |
| 2026-04-16 13:02 | 47.69977 | 15.61422 | 31225 ft | 436 kts | 114° |
| 2026-04-16 13:02 | 47.67664 | 15.69739 | 31216 ft | 436 kts | 114° |
| 2026-04-16 13:03 | 47.65343 | 15.78051 | 31214 ft | 436 kts | 114° |
| 2026-04-16 13:03 | 47.63013 | 15.86349 | 31203 ft | 436 kts | 114° |
| 2026-04-16 13:04 | 47.60677 | 15.94636 | 31203 ft | 436 kts | 114° |
| 2026-04-16 13:04 | 47.58336 | 16.02911 | 31198 ft | 436 kts | 114° |
| 2026-04-16 13:05 | 47.55998 | 16.11184 | 31196 ft | 435 kts | 114° |
| 2026-04-16 13:05 | 47.53691 | 16.19472 | 31197 ft | 436 kts | 113° |
| 2026-04-16 13:06 | 47.51468 | 16.27806 | 31196 ft | 436 kts | 112° |
| 2026-04-16 13:06 | 47.49250 | 16.36140 | 31197 ft | 435 kts | 113° |
| 2026-04-16 13:07 | 47.47001 | 16.44447 | 31192 ft | 435 kts | 113° |
| 2026-04-16 13:07 | 47.44739 | 16.52742 | 31189 ft | 435 kts | 113° |
| 2026-04-16 13:08 | 47.42482 | 16.61026 | 31191 ft | 434 kts | 112° |
| 2026-04-16 13:08 | 47.40441 | 16.69421 | 31194 ft | 434 kts | 109° |
| 2026-04-16 13:09 | 47.38871 | 16.76456 | 31196 ft | 434 kts | 109° |
| 2026-04-16 13:09 | 47.36952 | 16.84898 | 31190 ft | 434 kts | 109° |
| 2026-04-16 13:10 | 47.34980 | 16.93301 | 31194 ft | 433 kts | 110° |
| 2026-04-16 13:10 | 47.32990 | 17.01680 | 31194 ft | 433 kts | 110° |
| 2026-04-16 13:11 | 47.30997 | 17.10054 | 31189 ft | 433 kts | 110° |
| 2026-04-16 13:11 | 47.29007 | 17.18424 | 31184 ft | 433 kts | 110° |
| 2026-04-16 13:12 | 47.27012 | 17.26786 | 31187 ft | 433 kts | 110° |
| 2026-04-16 13:12 | 47.24845 | 17.35029 | 31182 ft | 431 kts | 118° |
| 2026-04-16 13:13 | 47.22100 | 17.42870 | 31180 ft | 431 kts | 118° |
| 2026-04-16 13:13 | 47.19355 | 17.50707 | 31180 ft | 431 kts | 118° |
| 2026-04-16 13:14 | 47.16613 | 17.58540 | 31176 ft | 431 kts | 118° |
| 2026-04-16 13:14 | 47.13865 | 17.66355 | 31183 ft | 430 kts | 118° |
| 2026-04-16 13:15 | 47.11129 | 17.74097 | 31182 ft | 430 kts | 118° |
| 2026-04-16 13:15 | 47.08372 | 17.81880 | 31181 ft | 430 kts | 118° |
| 2026-04-16 13:16 | 47.05613 | 17.89653 | 31178 ft | 430 kts | 118° |
| 2026-04-16 13:16 | 47.02850 | 17.97416 | 31181 ft | 429 kts | 118° |
| 2026-04-16 13:17 | 47.00087 | 18.05169 | 31170 ft | 429 kts | 118° |
| 2026-04-16 13:17 | 46.97315 | 18.12902 | 31166 ft | 428 kts | 118° |
| 2026-04-16 13:18 | 46.94548 | 18.20613 | 31167 ft | 428 kts | 118° |
| 2026-04-16 13:18 | 46.91775 | 18.28303 | 31168 ft | 427 kts | 118° |
| 2026-04-16 13:19 | 46.89003 | 18.35981 | 31173 ft | 426 kts | 118° |
| 2026-04-16 13:19 | 46.86229 | 18.43637 | 31169 ft | 426 kts | 118° |
| 2026-04-16 13:20 | 46.83455 | 18.51279 | 31168 ft | 426 kts | 118° |
| 2026-04-16 13:20 | 46.80676 | 18.58911 | 31160 ft | 425 kts | 118° |
| 2026-04-16 13:21 | 46.77890 | 18.66526 | 31164 ft | 425 kts | 118° |
| 2026-04-16 13:21 | 46.75106 | 18.74132 | 31161 ft | 425 kts | 118° |
| 2026-04-16 13:22 | 46.72318 | 18.81722 | 31159 ft | 425 kts | 118° |
| 2026-04-16 13:22 | 46.69523 | 18.89297 | 31158 ft | 424 kts | 118° |
| 2026-04-16 13:23 | 46.66727 | 18.96865 | 31157 ft | 424 kts | 118° |
| 2026-04-16 13:23 | 46.63928 | 19.04426 | 31155 ft | 424 kts | 118° |
| 2026-04-16 13:24 | 46.61125 | 19.11974 | 31156 ft | 424 kts | 119° |
| 2026-04-16 13:24 | 46.58316 | 19.19510 | 31149 ft | 424 kts | 118° |
| 2026-04-16 13:25 | 46.55504 | 19.27024 | 31149 ft | 423 kts | 118° |
| 2026-04-16 13:25 | 46.52685 | 19.34522 | 31156 ft | 423 kts | 118° |
| 2026-04-16 13:26 | 46.49873 | 19.42005 | 31152 ft | 422 kts | 118° |
| 2026-04-16 13:26 | 46.47061 | 19.49481 | 31150 ft | 422 kts | 118° |
| 2026-04-16 13:27 | 46.44243 | 19.56950 | 31145 ft | 422 kts | 118° |
| 2026-04-16 13:27 | 46.41418 | 19.64405 | 31150 ft | 422 kts | 119° |
| 2026-04-16 13:28 | 46.38602 | 19.71797 | 31147 ft | 421 kts | 119° |
| 2026-04-16 13:28 | 46.35771 | 19.79223 | 31143 ft | 421 kts | 119° |
| 2026-04-16 13:29 | 46.32941 | 19.86645 | 31143 ft | 421 kts | 119° |
| 2026-04-16 13:29 | 46.30103 | 19.94057 | 31142 ft | 421 kts | 119° |
| 2026-04-16 13:30 | 46.27257 | 20.01453 | 31142 ft | 421 kts | 119° |
| 2026-04-16 13:30 | 46.24410 | 20.08842 | 31140 ft | 421 kts | 119° |
| 2026-04-16 13:31 | 46.21562 | 20.16230 | 31140 ft | 421 kts | 119° |
| 2026-04-16 13:31 | 46.18709 | 20.23609 | 31139 ft | 421 kts | 119° |
| 2026-04-16 13:32 | 46.15854 | 20.30962 | 31152 ft | 420 kts | 119° |
| 2026-04-16 13:32 | 46.12998 | 20.38294 | 31152 ft | 419 kts | 119° |
| 2026-04-16 13:33 | 46.10137 | 20.45605 | 31154 ft | 418 kts | 119° |
| 2026-04-16 13:33 | 46.07278 | 20.52903 | 31152 ft | 418 kts | 119° |
| 2026-04-16 13:34 | 46.04420 | 20.60189 | 31141 ft | 418 kts | 119° |
| 2026-04-16 13:34 | 46.01563 | 20.67462 | 31142 ft | 417 kts | 119° |
| 2026-04-16 13:35 | 45.98700 | 20.74712 | 31138 ft | 417 kts | 119° |
| 2026-04-16 13:35 | 45.95838 | 20.81953 | 31133 ft | 416 kts | 119° |
| 2026-04-16 13:36 | 45.92972 | 20.89186 | 31132 ft | 416 kts | 119° |
| 2026-04-16 13:36 | 45.90120 | 20.96352 | 31132 ft | 416 kts | 120° |
| 2026-04-16 13:37 | 45.87244 | 21.03560 | 31133 ft | 416 kts | 119° |
| 2026-04-16 13:37 | 45.84365 | 21.10766 | 31129 ft | 416 kts | 120° |
| 2026-04-16 13:38 | 45.81474 | 21.17948 | 31125 ft | 416 kts | 120° |
| 2026-04-16 13:38 | 45.78587 | 21.25136 | 31123 ft | 416 kts | 119° |
| 2026-04-16 13:39 | 45.75705 | 21.32313 | 31129 ft | 416 kts | 120° |
| 2026-04-16 13:39 | 45.72808 | 21.39477 | 31136 ft | 415 kts | 120° |
| 2026-04-16 13:40 | 45.69911 | 21.46628 | 31125 ft | 416 kts | 120° |
| 2026-04-16 13:40 | 45.67009 | 21.53779 | 31126 ft | 415 kts | 120° |
| 2026-04-16 13:41 | 45.64105 | 21.60913 | 31120 ft | 415 kts | 120° |
| 2026-04-16 13:41 | 45.61202 | 21.68036 | 31127 ft | 414 kts | 120° |
| 2026-04-16 13:42 | 45.58298 | 21.75132 | 31128 ft | 413 kts | 120° |
| 2026-04-16 13:42 | 45.55398 | 21.82209 | 31123 ft | 413 kts | 120° |
| 2026-04-16 13:43 | 45.52491 | 21.89270 | 31123 ft | 413 kts | 120° |
| 2026-04-16 13:43 | 45.49600 | 21.96271 | 31119 ft | 413 kts | 120° |
| 2026-04-16 13:44 | 45.46690 | 22.03314 | 31120 ft | 412 kts | 120° |
| 2026-04-16 13:44 | 45.43777 | 22.10345 | 31115 ft | 412 kts | 120° |
| 2026-04-16 13:45 | 45.40861 | 22.17367 | 31118 ft | 412 kts | 120° |
| 2026-04-16 13:45 | 45.37945 | 22.24382 | 31118 ft | 412 kts | 120° |
| 2026-04-16 13:46 | 45.35027 | 22.31372 | 31132 ft | 410 kts | 120° |
| 2026-04-16 13:46 | 45.32114 | 22.38329 | 31138 ft | 409 kts | 121° |
| 2026-04-16 13:47 | 45.29203 | 22.45260 | 31128 ft | 408 kts | 120° |
| 2026-04-16 13:47 | 45.26296 | 22.52173 | 31127 ft | 408 kts | 121° |
| 2026-04-16 13:48 | 45.23388 | 22.59075 | 31125 ft | 407 kts | 121° |
| 2026-04-16 13:48 | 45.20478 | 22.65964 | 31120 ft | 407 kts | 121° |
| 2026-04-16 13:49 | 45.17560 | 22.72837 | 31118 ft | 407 kts | 121° |
| 2026-04-16 13:49 | 45.14640 | 22.79704 | 31116 ft | 407 kts | 121° |
| 2026-04-16 13:50 | 45.11716 | 22.86560 | 31109 ft | 407 kts | 121° |
| 2026-04-16 13:50 | 45.08792 | 22.93420 | 31103 ft | 407 kts | 121° |
| 2026-04-16 13:51 | 45.05862 | 23.00274 | 31100 ft | 407 kts | 121° |
| 2026-04-16 13:51 | 45.02927 | 23.07127 | 31097 ft | 407 kts | 121° |
| 2026-04-16 13:52 | 44.99987 | 23.13972 | 31097 ft | 407 kts | 121° |
| 2026-04-16 13:52 | 44.97060 | 23.20764 | 31087 ft | 407 kts | 121° |
| 2026-04-16 13:53 | 44.94109 | 23.27589 | 31094 ft | 407 kts | 121° |
| 2026-04-16 13:53 | 44.91159 | 23.34404 | 31097 ft | 407 kts | 121° |
| 2026-04-16 13:54 | 44.88210 | 23.41211 | 31096 ft | 407 kts | 121° |